Time;durP1;ratioP1;P1;durP2;ratioP2;P2;SDS_P1;SDS_P2;PMS_P1;PMS_P2;Temp;Humidity;BMP_temperature;BMP_pressure;BME280_temperature;BME280_humidity;BME280_pressure;Samples;Min_cycle;Max_cycle;Signal;HPM_P1;HPM_P2
2021/11/09 00:01:05;;;;;;;10.05;5.25;;;;;;;6.96;58.74;100940.28;4384883;32;34708;-87
2021/11/09 00:03:39;;;;;;;10.45;4.72;;;;;;;7.05;58.96;100946.34;4360527;32;33913;-87
2021/11/09 00:06:17;;;;;;;11.80;6.22;;;;;;;7.06;58.69;100937.72;4360659;32;33238;-87
2021/11/09 00:08:54;;;;;;;14.07;6.30;;;;;;;7.24;58.41;100939.50;4374063;32;34911;-87
2021/11/09 00:11:25;;;;;;;13.62;5.37;;;;;;;7.45;58.05;100936.09;4361129;32;33379;-88
2021/11/09 00:13:54;;;;;;;;;;;;;;;7.51;57.17;100939.56;4385682;32;34200;-88
2021/11/09 00:16:22;;;;;;;7.82;4.62;;;;;;;7.79;55.21;100934.38;4384834;32;33077;-87
2021/11/09 00:18:50;;;;;;;9.57;4.90;;;;;;;7.60;55.22;100928.28;4385229;32;33565;-87
2021/11/09 00:21:20;;;;;;;12.60;5.87;;;;;;;7.62;54.94;100936.97;4385287;32;34128;-87
2021/11/09 00:23:48;;;;;;;10.80;5.45;;;;;;;7.38;55.95;100935.22;4372682;32;34247;-88
2021/11/09 00:26:17;;;;;;;11.90;5.35;;;;;;;7.19;57.31;100942.97;4384769;32;33393;-88
2021/11/09 00:28:45;;;;;;;12.40;5.37;;;;;;;7.27;57.44;100945.56;4372408;32;32967;-88
2021/11/09 00:31:14;;;;;;;10.27;4.90;;;;;;;7.35;57.66;100937.78;4385076;32;33754;-88
2021/11/09 00:33:42;;;;;;;8.50;4.75;;;;;;;7.47;57.44;100936.94;4360008;32;32689;-88
2021/11/09 00:36:11;;;;;;;7.45;4.60;;;;;;;7.46;56.67;100937.78;4360251;32;34234;-88
2021/11/09 00:38:40;;;;;;;8.95;5.15;;;;;;;7.43;56.76;100945.56;4385381;32;33128;-88
2021/11/09 00:41:08;;;;;;;8.95;4.97;;;;;;;7.86;55.61;100937.81;4385192;32;33338;-87
2021/11/09 00:43:37;;;;;;;14.55;5.35;;;;;;;7.82;55.39;100936.94;4372987;32;34690;-88
2021/11/09 00:46:04;;;;;;;10.65;4.57;;;;;;;7.69;55.16;100943.88;4372558;32;33890;-87
2021/11/09 00:48:33;;;;;;;14.68;4.90;;;;;;;7.66;56.35;100938.69;4384879;32;33395;-88
2021/11/09 00:51:01;;;;;;;9.63;4.60;;;;;;;7.66;57.14;100940.44;4360208;32;33891;-87
2021/11/09 00:53:29;;;;;;;7.30;4.43;;;;;;;7.85;56.56;100943.88;4410019;32;33808;-87
2021/11/09 00:55:57;;;;;;;11.60;4.47;;;;;;;7.84;56.08;100953.41;4385299;32;32926;-87
2021/11/09 00:58:27;;;;;;;8.30;4.62;;;;;;;7.74;56.83;100951.66;4372401;32;33165;-88
2021/11/09 01:00:55;;;;;;;8.55;4.40;;;;;;;6.93;58.05;100961.00;4358868;32;34224;-87
2021/11/09 01:03:23;;;;;;;10.50;4.85;;;;;;;6.78;58.63;100968.72;4372722;32;33824;-87
2021/11/09 01:05:52;;;;;;;11.93;4.32;;;;;;;7.06;57.94;100961.94;4372492;32;34682;-88
2021/11/09 01:08:20;;;;;;;10.23;4.72;;;;;;;7.44;56.97;100962.87;4360061;32;33580;-88
2021/11/09 01:10:50;;;;;;;8.65;5.05;;;;;;;7.43;56.66;100967.22;4384679;32;33307;-88
2021/11/09 01:13:21;;;;;;;8.15;4.70;;;;;;;7.62;56.17;100962.91;4385033;32;34244;-87
2021/11/09 01:15:51;;;;;;;9.23;5.00;;;;;;;7.46;56.60;100961.12;4384865;32;33098;-88
2021/11/09 01:18:26;;;;;;;9.82;5.03;;;;;;;6.95;57.80;100974.84;4347708;32;33456;-87
2021/11/09 01:20:54;;;;;;;11.35;4.97;;;;;;;6.54;59.09;100977.25;4384886;32;33351;-88
2021/11/09 01:23:25;;;;;;;8.23;4.32;;;;;;;6.96;57.45;100984.34;4372658;32;33706;-87
2021/11/09 01:25:54;;;;;;;8.50;5.15;;;;;;;6.64;58.87;100991.97;4372233;32;33737;-87
2021/11/09 01:28:22;;;;;;;9.13;4.80;;;;;;;6.94;57.63;100993.84;4384536;32;33848;-87
2021/11/09 01:30:51;;;;;;;9.65;5.22;;;;;;;6.71;57.80;100985.09;4371817;32;33665;-88
2021/11/09 01:33:19;;;;;;;10.32;5.00;;;;;;;6.66;58.29;100983.34;4372394;32;33814;-87
2021/11/09 01:35:47;;;;;;;10.80;4.70;;;;;;;6.79;58.50;100988.59;4384162;32;33998;-87
2021/11/09 01:38:15;;;;;;;8.77;5.43;;;;;;;6.93;58.26;100986.94;4384635;32;33684;-88
2021/11/09 01:40:43;;;;;;;10.05;5.75;;;;;;;7.09;57.75;100981.81;4388661;32;33118;-88
2021/11/09 01:43:13;;;;;;;9.95;4.97;;;;;;;6.82;59.09;100978.22;4372622;32;34080;-87
2021/11/09 01:45:44;;;;;;;10.98;5.60;;;;;;;6.82;59.31;100983.41;4384393;32;33466;-88
2021/11/09 01:48:13;;;;;;;8.27;5.25;;;;;;;6.77;59.29;100983.41;4372699;32;34007;-87
2021/11/09 01:50:45;;;;;;;10.50;4.78;;;;;;;7.10;58.17;100978.34;4371532;32;33506;-88
2021/11/09 01:53:13;;;;;;;10.85;5.62;;;;;;;7.07;57.92;100979.19;4359346;32;34094;-86
2021/11/09 01:55:42;;;;;;;9.82;5.40;;;;;;;6.63;59.16;100983.31;4359348;32;33068;-87
2021/11/09 01:58:11;;;;;;;8.77;5.53;;;;;;;6.64;59.19;100984.22;4371928;32;34283;-88
2021/11/09 02:00:51;;;;;;;9.63;5.37;;;;;;;7.01;57.49;100990.41;4371574;32;33675;-87
2021/11/09 02:03:24;;;;;;;9.05;5.35;;;;;;;6.77;57.93;100987.72;4370992;32;33043;-86
2021/11/09 02:05:53;;;;;;;11.07;5.40;;;;;;;7.00;56.58;100991.25;4383968;32;33272;-86
2021/11/09 02:08:24;;;;;;;9.50;5.15;;;;;;;7.06;55.81;100997.31;4371694;32;34305;-87
2021/11/09 02:10:53;;;;;;;10.50;5.75;;;;;;;7.03;55.50;100993.00;4371431;32;34364;-87
2021/11/09 02:13:22;;;;;;;9.30;5.00;;;;;;;6.30;57.43;100999.53;4385219;32;33080;-87
2021/11/09 02:15:51;;;;;;;9.82;4.95;;;;;;;6.83;56.19;100995.50;4385943;32;33821;-87
2021/11/09 02:18:22;;;;;;;;;;;;;;;6.82;56.08;101001.53;4373563;32;34311;-87
2021/11/09 02:20:57;;;;;;;11.48;5.28;;;;;;;6.65;55.51;100999.75;4385730;32;34432;-87
2021/11/09 02:23:30;;;;;;;13.65;5.80;;;;;;;6.30;56.90;101003.00;4373939;32;33612;-87
2021/11/09 02:25:58;;;;;;;10.48;5.32;;;;;;;6.43;56.77;101003.94;4374661;32;33467;-88
2021/11/09 02:28:27;;;;;;;10.43;5.82;;;;;;;6.14;57.60;101007.19;4360404;32;33845;-86
2021/11/09 02:30:56;;;;;;;11.00;5.87;;;;;;;6.30;57.45;101013.34;4370289;32;34623;-88
2021/11/09 02:33:24;;;;;;;14.57;7.18;;;;;;;6.43;57.52;101006.50;4386746;32;32992;-88
2021/11/09 02:35:56;;;;;;;11.38;6.60;;;;;;;6.49;58.32;101005.72;4386451;32;33151;-87
2021/11/09 02:38:23;;;;;;;11.45;6.45;;;;;;;6.65;58.46;101011.84;4361354;32;34177;-87
2021/11/09 02:40:51;;;;;;;11.20;5.85;;;;;;;6.76;58.31;101019.66;4386176;32;33999;-87
2021/11/09 02:43:20;;;;;;;13.43;6.93;;;;;;;6.68;58.41;101010.13;4386319;32;35604;-88
2021/11/09 02:48:24;;;;;;;;;;;;;;;6.54;59.90;101022.09;4386533;32;34365;-88
2021/11/09 02:51:01;;;;;;;13.25;6.68;;;;;;;6.52;60.46;101021.25;4397851;32;34241;-87
2021/11/09 02:56:14;;;;;;;13.98;7.53;;;;;;;6.43;60.75;101034.13;4373718;32;33889;-87
2021/11/09 03:01:36;;;;;;;13.75;6.65;;;;;;;6.41;60.92;101034.13;4375132;32;35374;-87
2021/11/09 03:04:12;;;;;;;10.32;5.82;;;;;;;6.62;60.22;101032.53;4361713;32;32624;-87
2021/11/09 03:06:49;;;;;;;12.32;6.62;;;;;;;6.17;61.72;101034.81;4373551;32;32949;-86
2021/11/09 03:09:22;;;;;;;11.85;6.50;;;;;;;6.69;60.28;101034.31;4374385;32;34207;-88
2021/11/09 03:11:58;;;;;;;;;;;;;;;6.61;60.41;101030.81;4386391;32;34495;-87
2021/11/09 03:14:26;;;;;;;13.40;6.00;;;;;;;6.93;59.50;101030.13;4384578;32;33822;-88
2021/11/09 03:16:57;;;;;;;10.55;6.43;;;;;;;6.23;61.70;101040.03;4373240;32;34260;-87
2021/11/09 03:47:00;;;;;;;9.77;5.57;;;;;;;5.93;59.59;101067.34;4373462;32;34122;-87
2021/11/09 03:49:32;;;;;;;11.23;6.62;;;;;;;6.23;57.87;101065.91;4385900;32;33638;-88
2021/11/09 03:52:07;;;;;;;10.52;5.47;;;;;;;6.15;57.97;101068.44;4385682;32;34042;-87
2021/11/09 03:54:35;;;;;;;10.52;5.70;;;;;;;5.98;58.08;101070.87;4385654;32;33313;-87
2021/11/09 03:57:13;;;;;;;10.75;5.47;;;;;;;5.82;58.43;101076.72;4385217;32;34829;-87
2021/11/09 04:07:35;;;;;;;10.23;5.32;;;;;;;5.81;60.17;101080.16;4373368;32;33157;-87
2021/11/09 04:10:10;;;;;;;10.38;5.25;;;;;;;6.12;59.01;101088.25;4350323;32;34182;-87
2021/11/09 04:23:32;;;;;;;13.40;5.35;;;;;;;5.51;59.59;101104.84;4373130;32;33368;-88
2021/11/09 05:10:43;;;;;;;12.40;6.37;;;;;;;5.33;59.96;101146.81;4363011;32;33711;-87
2021/11/09 05:13:12;;;;;;;13.75;6.50;;;;;;;5.01;60.99;101150.72;4385485;32;32908;-87
2021/11/09 05:15:39;;;;;;;12.37;7.20;;;;;;;5.56;59.18;101154.88;4410694;32;34329;-87
2021/11/09 05:18:08;;;;;;;16.00;6.40;;;;;;;5.61;58.81;101153.22;4380108;32;34807;-86
2021/11/09 05:20:36;;;;;;;11.00;5.75;;;;;;;5.57;58.41;101156.63;4381268;32;33857;-87
2021/11/09 05:23:04;;;;;;;10.90;6.20;;;;;;;5.50;57.44;101159.97;4361828;32;32991;-88
2021/11/09 05:25:32;;;;;;;15.52;6.70;;;;;;;5.68;56.78;101159.34;4374059;32;33302;-88
2021/11/09 05:28:00;;;;;;;12.27;6.20;;;;;;;5.61;57.52;101162.69;4385948;32;32994;-87
2021/11/09 05:30:28;;;;;;;17.30;5.60;;;;;;;5.56;57.38;101170.41;4373480;32;33797;-87
2021/11/09 05:32:59;;;;;;;14.73;6.30;;;;;;;5.24;58.23;101170.84;4361036;32;33823;-88
2021/11/09 05:35:27;;;;;;;15.38;6.62;;;;;;;4.77;60.96;101182.22;4385777;32;34013;-87
2021/11/09 05:37:57;;;;;;;14.27;6.68;;;;;;;5.12;59.65;101181.88;4361213;32;35023;-88
2021/11/09 05:40:29;;;;;;;19.25;6.87;;;;;;;4.81;61.36;101190.84;4373975;32;33655;-88
2021/11/09 05:42:59;;;;;;;18.17;7.62;;;;;;;5.08;60.42;101189.53;4377546;32;34055;-88
2021/11/09 05:45:27;;;;;;;12.13;6.70;;;;;;;4.77;61.10;101192.53;4398505;32;35104;-88
2021/11/09 05:47:56;;;;;;;16.35;7.95;;;;;;;4.76;61.61;101198.53;4386852;32;34332;-87
2021/11/09 05:50:26;;;;;;;13.98;7.37;;;;;;;4.94;60.87;101204.84;4387656;32;33691;-88
2021/11/09 05:52:59;;;;;;;11.57;6.47;;;;;;;5.25;60.34;101213.03;4363700;32;33382;-87
2021/11/09 05:55:28;;;;;;;11.80;6.82;;;;;;;5.06;60.40;101222.25;4375090;32;33843;-87
2021/11/09 05:57:56;;;;;;;18.55;7.00;;;;;;;4.96;60.96;101229.84;4412241;32;33566;-88
2021/11/09 06:00:24;;;;;;;18.33;7.22;;;;;;;4.85;61.45;101231.38;4362337;32;33980;-87
2021/11/09 06:02:52;;;;;;;14.20;6.57;;;;;;;4.96;62.41;101235.03;4375333;32;33958;-88
2021/11/09 06:05:20;;;;;;;13.45;8.25;;;;;;;5.23;61.37;101236.28;4362232;32;33261;-88
2021/11/09 06:07:50;;;;;;;13.15;7.22;;;;;;;5.06;60.92;101233.44;4362212;32;34118;-88
2021/11/09 06:10:18;;;;;;;11.63;6.65;;;;;;;5.31;60.05;101245.00;4374763;32;34766;-88
2021/11/09 06:12:46;;;;;;;13.05;6.40;;;;;;;5.76;58.58;101248.22;4387491;32;33063;-88
2021/11/09 06:15:14;;;;;;;15.40;7.32;;;;;;;6.10;58.16;101240.03;4374634;32;34642;-89
2021/11/09 06:17:42;;;;;;;15.40;7.37;;;;;;;5.92;59.09;101261.38;4387600;32;34566;-88
2021/11/09 06:20:10;;;;;;;17.65;7.32;;;;;;;5.70;58.84;101268.81;4387680;32;33037;-87
2021/11/09 06:22:37;;;;;;;14.90;7.37;;;;;;;6.13;57.93;101273.72;4375160;32;33987;-86
2021/11/09 06:25:06;;;;;;;14.98;6.70;;;;;;;6.01;58.60;101280.50;4387184;32;34108;-87
2021/11/09 06:27:35;;;;;;;15.52;7.53;;;;;;;5.71;59.44;101299.03;4362265;32;34620;-89
2021/11/09 06:30:04;;;;;;;14.15;7.45;;;;;;;5.98;59.53;101297.69;4386704;32;33186;-88
2021/11/09 06:32:35;;;;;;;12.10;7.37;;;;;;;6.12;60.17;101301.31;4415750;32;32544;-86
2021/11/09 06:35:08;;;;;;;15.50;7.73;;;;;;;6.30;60.16;101305.84;4378227;32;33866;-87
2021/11/09 06:37:36;;;;;;;17.25;8.20;;;;;;;6.42;60.38;101299.94;4379645;32;34260;-88
2021/11/09 06:40:07;;;;;;;16.83;9.02;;;;;;;6.35;60.46;101311.97;4379375;32;34350;-88
2021/11/09 06:42:35;;;;;;;14.75;8.15;;;;;;;6.46;60.42;101306.00;4378570;32;33181;-88
2021/11/09 06:45:11;;;;;;;15.77;8.65;;;;;;;6.80;59.38;101321.91;4369737;32;33921;-90
2021/11/09 06:47:48;;;;;;;18.70;8.73;;;;;;;7.02;58.88;101325.59;4394200;32;34256;-88
2021/11/09 06:50:18;;;;;;;;;;;;;;;7.19;58.29;101336.97;4378979;32;33872;-88
2021/11/09 06:52:46;;;;;;;13.73;8.35;;;;;;;7.51;57.47;101338.06;4391314;32;34411;-89
2021/11/09 06:55:29;;;;;;;18.52;7.78;;;;;;;7.50;57.55;101346.72;4383717;32;33552;-90
2021/11/09 06:59:20;;;;;;;;;;;;;;;;;;;;;
2021/11/09 07:06:51;;;;;;;14.13;8.57;;;;;;;7.99;56.77;101362.63;4303860;33;36170;-90
2021/11/09 07:09:55;;;;;;;16.48;8.00;;;;;;;8.30;56.36;101367.09;4316692;33;33192;-91
2021/11/09 07:13:33;;;;;;;16.55;8.18;;;;;;;8.23;56.49;101365.31;4343998;32;33444;-90
2021/11/09 07:25:12;;;;;;;15.38;8.73;;;;;;;8.83;55.63;101395.03;4253999;33;35147;-90
2021/11/09 07:34:37;;;;;;;19.00;8.43;;;;;;;9.30;54.60;101411.56;4318453;33;33060;-89
2021/11/09 07:37:18;;;;;;;17.80;8.57;;;;;;;9.43;54.24;101412.47;4306802;33;32721;-89
2021/11/09 07:40:14;;;;;;;13.57;8.80;;;;;;;9.52;53.91;101417.66;4308067;33;35811;-90
2021/11/09 07:42:50;;;;;;;16.70;9.05;;;;;;;9.66;53.89;101417.66;4331777;33;34710;-89
2021/11/09 07:45:29;;;;;;;17.02;8.70;;;;;;;9.80;53.35;101417.66;4345723;33;33047;-89
2021/11/09 07:48:07;;;;;;;16.62;8.80;;;;;;;10.02;52.88;101422.81;4322421;33;33223;-89
2021/11/09 07:50:45;;;;;;;13.02;7.82;;;;;;;10.26;52.44;101427.09;4335406;32;34745;-88
2021/11/09 07:56:20;;;;;;;16.58;10.23;;;;;;;10.45;51.84;101442.72;4356897;32;32758;-88
2021/11/09 07:59:13;;;;;;;19.30;11.82;;;;;;;10.37;52.10;101440.16;4391110;32;32913;-88
2021/11/09 08:02:27;;;;;;;19.95;10.07;;;;;;;10.47;51.79;101441.00;4378450;32;33964;-89
2021/11/09 08:05:16;;;;;;;53.50;32.55;;;;;;;10.87;51.19;101443.44;4378352;32;34258;-88
2021/11/09 08:07:57;;;;;;;19.60;12.65;;;;;;;10.91;50.94;101450.34;4406174;32;32600;-90
2021/11/09 08:10:53;;;;;;;17.50;9.70;;;;;;;11.15;50.49;101453.72;4377826;32;34203;-89
2021/11/09 08:13:40;;;;;;;15.50;8.23;;;;;;;11.04;50.62;101451.16;4377880;32;33253;-88
2021/11/09 08:16:23;;;;;;;14.05;8.93;;;;;;;11.24;50.41;101453.66;4391000;32;33561;-90
2021/11/09 08:18:54;;;;;;;18.20;8.47;;;;;;;11.18;50.77;101457.19;4366275;32;34336;-88
2021/11/09 08:21:32;;;;;;;14.20;8.20;;;;;;;11.31;50.60;101460.56;4376223;32;33505;-88
2021/11/09 08:24:08;;;;;;;17.80;8.70;;;;;;;11.20;51.10;101467.59;4382172;32;33458;-89
2021/11/09 08:26:48;;;;;;;14.65;7.90;;;;;;;11.24;51.30;101469.31;4389843;32;33180;-89
2021/11/09 08:29:29;;;;;;;14.18;7.55;;;;;;;11.59;50.71;101469.94;4380953;32;33149;-88
2021/11/09 08:32:00;;;;;;;17.73;8.95;;;;;;;11.75;50.18;101478.53;4402082;32;34577;-89
2021/11/09 08:34:35;;;;;;;16.08;9.13;;;;;;;11.84;49.88;101488.91;4401720;32;33241;-89
2021/11/09 08:37:05;;;;;;;14.77;8.90;;;;;;;11.80;49.93;101479.34;4378127;32;32866;-89
2021/11/09 08:39:41;;;;;;;13.32;8.27;;;;;;;11.97;49.54;101489.72;4404442;32;34845;-89
2021/11/09 08:42:20;;;;;;;14.32;8.25;;;;;;;12.31;48.68;101505.06;4395586;32;34855;-89
2021/11/09 08:47:25;;;;;;;20.00;6.90;;;;;;;12.84;47.37;101511.47;4389471;32;33890;-89
2021/11/09 08:49:55;;;;;;;14.50;7.70;;;;;;;12.79;46.55;101515.88;4377736;32;34084;-90
2021/11/09 08:52:30;;;;;;;;;;;;;;;12.90;46.59;101520.97;4403504;32;34004;-89
2021/11/09 09:05:47;;;;;;;21.70;10.63;;;;;;;13.89;43.94;101532.69;4401374;32;33890;-87
2021/11/09 09:08:16;;;;;;;12.07;6.60;;;;;;;13.88;43.65;101535.34;4378011;32;33224;-88
2021/11/09 09:10:43;;;;;;;10.02;6.12;;;;;;;13.83;43.50;101535.44;4376490;32;34468;-87
2021/11/09 09:13:11;;;;;;;12.73;6.18;;;;;;;13.79;43.51;101545.09;4379294;32;33585;-88
2021/11/09 09:15:40;;;;;;;14.98;6.68;;;;;;;14.06;42.88;101542.06;4401574;32;33293;-88
2021/11/09 09:18:08;;;;;;;11.35;6.40;;;;;;;14.15;42.77;101541.91;4401207;32;33686;-88
2021/11/09 09:20:45;;;;;;;10.95;5.18;;;;;;;14.27;42.50;101544.28;4401901;32;33521;-87
2021/11/09 09:23:22;;;;;;;11.35;6.18;;;;;;;14.65;42.03;101542.78;4376309;32;33232;-89
2021/11/09 09:26:05;;;;;;;10.63;6.75;;;;;;;14.63;41.90;101539.31;4378151;32;35203;-88
2021/11/09 09:29:06;;;;;;;11.23;6.22;;;;;;;14.62;42.10;101548.03;4402106;32;34118;-88
2021/11/09 09:56:29;;;;;;;6.70;4.37;;;;;;;15.64;38.16;101573.97;4403068;32;33528;-86
2021/11/09 09:59:00;;;;;;;7.90;4.18;;;;;;;15.67;37.67;101579.16;4413821;32;34091;-89
2021/11/09 10:01:43;;;;;;;8.63;4.60;;;;;;;16.06;36.58;101576.53;4384215;32;33736;-88
2021/11/09 10:04:31;;;;;;;8.88;5.10;;;;;;;16.11;36.95;101563.25;4408661;32;33308;-88
2021/11/09 10:06:58;;;;;;;8.35;4.68;;;;;;;16.00;37.25;101563.53;4390814;32;201004;-88
2021/11/09 10:09:44;;;;;;;10.73;4.90;;;;;;;16.15;36.81;101565.78;4380740;32;35978;-87
2021/11/09 10:12:26;;;;;;;12.52;5.72;;;;;;;16.34;36.63;101574.06;4392485;32;32514;-87
2021/11/09 10:14:57;;;;;;;9.98;5.12;;;;;;;16.36;36.40;101569.59;4402311;32;35070;-90
2021/11/09 10:17:27;;;;;;;9.52;5.35;;;;;;;16.30;36.74;101577.66;4400590;32;34351;-88
2021/11/09 10:19:57;;;;;;;;;;;;;;;16.70;35.80;101573.13;4388453;32;33084;-89
2021/11/09 10:22:32;;;;;;;10.20;5.80;;;;;;;16.78;35.30;101575.53;4374577;32;36194;-88
2021/11/09 10:25:07;;;;;;;12.65;6.25;;;;;;;16.73;35.69;101574.81;4421310;32;33066;-88
2021/11/09 10:27:37;;;;;;;11.23;5.53;;;;;;;16.86;35.26;101576.19;4377204;32;33946;-89
2021/11/09 10:30:09;;;;;;;11.02;5.30;;;;;;;17.01;35.10;101578.41;4394093;32;34190;-89
2021/11/09 10:32:38;;;;;;;9.20;5.05;;;;;;;17.45;34.21;101579.78;4423713;32;34130;-89
2021/11/09 10:35:09;;;;;;;11.00;5.53;;;;;;;17.58;34.00;101583.78;4379396;32;33332;-88
2021/11/09 10:37:40;;;;;;;13.18;6.43;;;;;;;16.87;35.26;101583.16;4389660;32;33506;-89
2021/11/09 10:40:16;;;;;;;9.38;6.05;;;;;;;16.93;35.43;101588.31;4379643;32;34424;-88
2021/11/09 10:42:48;;;;;;;14.60;6.90;;;;;;;17.30;34.69;101592.50;4402766;32;33685;-88
2021/11/09 10:45:19;;;;;;;14.15;6.78;;;;;;;17.09;34.99;101590.50;4411753;32;33588;-88
2021/11/09 10:47:53;;;;;;;10.82;6.03;;;;;;;16.90;35.56;101598.03;4379799;32;34466;-88
2021/11/09 10:50:27;;;;;;;12.63;6.57;;;;;;;16.96;35.35;101588.19;4375396;32;34288;-88
2021/11/09 10:53:19;;;;;;;10.98;6.97;;;;;;;16.93;35.54;101597.97;4387140;32;34496;-88
2021/11/09 10:59:09;;;;;;;10.88;6.70;;;;;;;17.31;34.71;101596.88;4372603;32;34347;-87
2021/11/09 11:04:33;;;;;;;10.20;6.25;;;;;;;17.42;34.26;101603.59;4386620;32;33262;-89
2021/11/09 11:07:10;;;;;;;11.02;7.15;;;;;;;17.43;34.24;101598.28;4415259;32;34286;-87
2021/11/09 11:09:43;;;;;;;12.55;6.30;;;;;;;17.56;34.06;101598.75;4377818;32;33249;-87
2021/11/09 11:12:14;;;;;;;10.02;6.57;;;;;;;17.69;33.76;101599.25;4407583;32;34012;-87
2021/11/09 11:14:50;;;;;;;11.85;6.65;;;;;;;17.74;33.69;101599.13;4383600;32;34173;-88
2021/11/09 11:17:22;;;;;;;12.37;5.18;;;;;;;17.78;33.31;101596.31;4410228;32;33981;-88
2021/11/09 11:19:58;;;;;;;11.35;5.78;;;;;;;17.99;32.79;101601.88;4391478;32;34637;-87
2021/11/09 11:22:48;;;;;;;10.00;4.50;;;;;;;18.08;31.65;101598.06;4377774;32;34256;-88
2021/11/09 11:25:51;;;;;;;9.98;5.70;;;;;;;18.25;31.02;101608.06;4380400;32;34079;-88
2021/11/09 11:28:22;;;;;;;8.80;4.47;;;;;;;18.10;30.92;101610.28;4405069;32;34124;-88
2021/11/09 11:31:05;;;;;;;9.98;6.07;;;;;;;18.36;31.03;101606.78;4392481;32;34373;-89
2021/11/09 11:34:05;;;;;;;11.90;5.43;;;;;;;18.26;31.64;101600.09;4396766;32;32950;-86
2021/11/09 11:36:33;;;;;;;9.23;5.35;;;;;;;18.36;31.42;101601.50;4400942;32;34052;-90
2021/11/09 11:39:08;;;;;;;11.00;5.37;;;;;;;18.71;30.63;101598.56;4362052;32;34379;-88
2021/11/09 11:41:39;;;;;;;11.02;5.85;;;;;;;18.24;31.09;101604.56;4381598;32;34914;-89
2021/11/09 11:44:21;;;;;;;9.88;5.55;;;;;;;18.32;30.91;101604.28;4392038;32;33305;-89
2021/11/09 11:46:57;;;;;;;9.98;5.15;;;;;;;18.29;30.72;101610.53;4355298;32;32647;-89
2021/11/09 11:49:51;;;;;;;11.05;5.10;;;;;;;18.42;30.44;101602.22;4379730;32;33951;-89
2021/11/09 11:52:46;;;;;;;6.85;3.75;;;;;;;18.67;30.39;101603.06;4403163;32;33367;-90
2021/11/09 11:55:43;;;;;;;8.90;4.80;;;;;;;18.61;29.83;101605.06;4405578;32;34181;-90
2021/11/09 11:58:33;;;;;;;10.07;4.50;;;;;;;18.78;29.46;101607.13;4394387;32;34242;-88
2021/11/09 12:01:09;;;;;;;6.18;3.53;;;;;;;18.65;29.22;101604.03;4379885;32;33261;-87
2021/11/09 12:03:38;;;;;;;11.50;6.15;;;;;;;18.93;28.34;101598.69;4379643;32;33355;-88
2021/11/09 12:06:21;;;;;;;10.48;6.75;;;;;;;19.13;29.55;101600.59;4404704;32;33630;-87
2021/11/09 12:08:51;;;;;;;9.88;6.30;;;;;;;19.13;29.71;101607.63;4405160;32;32973;-88
2021/11/09 12:11:22;;;;;;;9.68;6.18;;;;;;;18.66;30.54;101614.53;4380433;32;33742;-89
2021/11/09 12:13:55;;;;;;;;;;;;;;;18.75;30.29;101618.66;4380194;32;34057;-89
2021/11/09 12:16:46;;;;;;;10.18;5.93;;;;;;;18.50;30.77;101618.62;4392209;32;35197;-88
2021/11/09 12:19:34;;;;;;;10.93;6.62;;;;;;;18.57;31.15;101616.66;4404311;32;32696;-89
2021/11/09 12:22:09;;;;;;;14.02;7.60;;;;;;;18.67;31.32;101624.19;4379675;32;34493;-88
2021/11/09 12:24:58;;;;;;;9.32;5.97;;;;;;;18.87;31.10;101618.19;4417434;32;33340;-88
2021/11/09 12:27:57;;;;;;;10.30;5.78;;;;;;;18.63;31.33;101619.94;4368235;32;34432;-88
2021/11/09 12:30:35;;;;;;;10.15;6.20;;;;;;;19.12;30.45;101621.75;4391754;32;34110;-87
2021/11/09 12:33:22;;;;;;;10.85;6.25;;;;;;;18.71;31.12;101627.59;4401999;32;34692;-87
2021/11/09 12:36:11;;;;;;;10.27;5.70;;;;;;;18.76;31.07;101624.78;4381035;32;33095;-89
2021/11/09 12:38:44;;;;;;;9.52;6.28;;;;;;;18.90;30.90;101626.97;4404578;32;33922;-90
2021/11/09 12:41:24;;;;;;;11.23;5.68;;;;;;;19.20;30.11;101627.66;4388112;32;33373;-89
2021/11/09 12:44:08;;;;;;;7.93;4.65;;;;;;;19.08;30.12;101620.16;4418525;32;33894;-88
2021/11/09 12:46:46;;;;;;;7.80;4.55;;;;;;;19.26;29.29;101627.41;4379896;32;34866;-88
2021/11/09 12:49:15;;;;;;;11.65;4.55;;;;;;;19.14;29.09;101627.88;4377046;32;33183;-88
2021/11/09 12:51:44;;;;;;;10.18;4.50;;;;;;;18.93;29.07;101634.78;4389712;32;34808;-89
2021/11/09 12:54:16;;;;;;;6.15;3.05;;;;;;;19.17;28.89;101635.66;4389852;32;34085;-87
2021/11/09 12:56:51;;;;;;;10.75;4.75;;;;;;;19.38;27.80;101638.44;4376238;32;34367;-88
2021/11/09 13:10:26;;;;;;;11.50;7.70;;;;;;;19.79;29.52;101652.69;4400878;32;33384;-88
2021/11/09 13:12:54;;;;;;;12.65;7.35;;;;;;;19.71;29.74;101651.28;4388246;32;32494;-88
2021/11/09 13:15:23;;;;;;;13.07;6.78;;;;;;;19.71;29.23;101652.16;4393124;32;34171;-89
2021/11/09 13:17:56;;;;;;;12.52;6.72;;;;;;;19.26;29.58;101651.19;4428708;32;35129;-89
2021/11/09 13:23:12;;;;;;;11.23;7.57;;;;;;;19.37;29.80;101658.69;4388985;32;32958;-88
2021/11/09 13:25:55;;;;;;;13.50;7.40;;;;;;;19.42;29.75;101658.53;4397462;32;34803;-89
2021/11/09 13:28:43;;;;;;;12.82;7.85;;;;;;;19.34;29.92;101664.13;4382629;32;34024;-87
2021/11/09 13:31:13;;;;;;;12.68;7.03;;;;;;;19.47;29.95;101668.03;4365861;32;33448;-88
2021/11/09 13:33:47;;;;;;;12.18;7.28;;;;;;;19.82;29.57;101673.78;4391758;32;32564;-87
2021/11/09 13:36:19;;;;;;;9.95;6.82;;;;;;;20.48;28.58;101664.09;4366486;32;34910;-89
2021/11/09 13:38:46;;;;;;;11.90;6.57;;;;;;;21.24;27.06;101666.16;4378225;32;34505;-87
2021/11/09 13:41:22;;;;;;;14.18;7.07;;;;;;;22.01;25.99;101671.38;4378887;32;33536;-88
2021/11/09 13:43:55;;;;;;;10.63;6.03;;;;;;;22.65;25.18;101674.44;4378647;32;33352;-88
2021/11/09 13:46:32;;;;;;;9.13;5.97;;;;;;;23.15;24.15;101686.09;4398223;32;34949;-88
2021/11/09 13:49:10;;;;;;;12.60;6.93;;;;;;;23.86;23.23;101676.03;4380214;32;33426;-86
2021/11/09 13:51:48;;;;;;;12.13;6.53;;;;;;;24.18;22.91;101670.72;4375014;32;33820;-86
2021/11/09 13:54:24;;;;;;;14.20;6.50;;;;;;;24.69;22.09;101681.09;4388495;32;32690;-87
2021/11/09 13:56:54;;;;;;;9.15;5.25;;;;;;;25.19;21.65;101686.94;4376344;32;33936;-87
2021/11/09 13:59:26;;;;;;;9.07;4.43;;;;;;;25.16;21.16;101692.47;4388426;32;34121;-88
2021/11/09 14:10:15;;;;;;;11.70;5.22;;;;;;;27.09;19.25;101695.09;4405140;32;34563;-87
2021/11/09 14:18:13;;;;;;;10.00;5.00;;;;;;;24.69;21.70;101702.44;4403174;32;33695;-87
2021/11/09 14:20:56;;;;;;;9.32;5.68;;;;;;;22.86;24.10;101703.53;4370895;32;34016;-87
2021/11/09 14:23:31;;;;;;;9.88;5.95;;;;;;;21.92;25.44;101706.31;4382439;32;33135;-87
2021/11/09 14:26:23;;;;;;;10.65;5.25;;;;;;;20.74;27.31;101717.75;4393783;32;34279;-87
2021/11/09 14:28:59;;;;;;;11.57;6.28;;;;;;;20.41;27.91;101715.56;4378523;32;33770;-87
2021/11/09 14:31:34;;;;;;;13.25;6.78;;;;;;;19.98;28.79;101719.03;4403196;32;34632;-86
2021/11/09 14:34:17;;;;;;;16.17;6.40;;;;;;;19.39;29.91;101717.66;4377622;32;34818;-86
2021/11/09 14:36:48;;;;;;;12.55;6.32;;;;;;;18.62;31.62;101722.94;4377352;32;34038;-86
2021/11/09 14:39:24;;;;;;;;;;;;;;;18.11;32.75;101728.06;4390836;32;32998;-89
2021/11/09 14:48:15;;;;;;;13.43;6.62;;;;;;;17.40;34.75;101734.50;4377717;32;34062;-88
2021/11/09 14:51:06;;;;;;;14.55;6.93;;;;;;;17.24;35.25;101736.69;4389460;32;33178;-89
2021/11/09 14:56:23;;;;;;;17.35;7.97;;;;;;;17.03;35.85;101744.25;4390672;32;33142;-84
2021/11/09 14:58:51;;;;;;;17.08;9.20;;;;;;;16.75;36.52;101744.94;4376898;32;32198;-86
2021/11/09 15:04:22;;;;;;;28.10;13.10;;;;;;;16.13;38.05;101753.41;4376364;32;34482;-85
2021/11/09 15:07:01;;;;;;;25.65;12.37;;;;;;;16.03;38.35;101748.34;4386953;32;33485;-85
2021/11/09 15:32:22;;;;;;;36.63;16.50;;;;;;;13.11;45.72;101778.03;4409875;32;32366;-87
2021/11/09 15:36:54;;;;;;;41.28;18.62;;;;;;;13.34;45.17;101783.94;4388604;32;34511;-87
2021/11/09 15:39:28;;;;;;;43.97;21.62;;;;;;;13.55;44.76;101786.37;4399231;32;32890;-87
2021/11/09 15:41:59;;;;;;;45.17;22.85;;;;;;;13.66;44.43;101789.75;4391399;32;33872;-87
2021/11/09 15:44:30;;;;;;;29.60;12.77;;;;;;;13.73;44.31;101786.16;4410276;32;33911;-87
2021/11/09 15:46:59;;;;;;;32.75;10.70;;;;;;;13.66;44.15;101800.22;4394916;32;33016;-87
2021/11/09 15:49:27;;;;;;;26.55;9.48;;;;;;;13.25;44.84;101797.09;4401227;32;33652;-87
2021/11/09 15:51:59;;;;;;;21.98;9.63;;;;;;;13.65;43.75;101803.72;4416232;32;32643;-87